Emerald Princess — ZCDP8 — position and weather

sailwx.info

Track history (hours):
 
Tides and Currents Weather Stations Pressure Air Temp Water Temp Dewpoint Dewpoint Depression Visibility Wind Speed Wind Dir Waves Ship Positions

Emerald Princess

Last reported at 2017-Jun-19 12:08 UTC. Time now 2017-Jun-23 18:52 UTC.
Position N 49°18' W 127°08'.

Type: Passenger vessel. MMSI: 310531000.

Date/timePositionNaut miles runAvg speedWind from/ knotsBaromVisibWave heightAir tempDewpointWater temp
2017-Jun-19 12:08N 49°18' W 127°08'218.8
2017-Jun-19 12:00N 49°16' W 127°05'919.0
2017-Jun-19 11:31N 49°10' W 126°55'918.5
2017-Jun-19 11:00N 49°05' W 126°42'1019.1
2017-Jun-19 10:30N 49°00' W 126°30'1119.3
2017-Jun-19 09:57N 48°55' W 126°16'919.2
2017-Jun-19 09:30N 48°50' W 126°05'1019.0
2017-Jun-19 09:00N 48°45' W 125°53'919.0
2017-Jun-19 08:31N 48°40' W 125°40'1019.3
2017-Jun-19 08:00N 48°35' W 125°28'918.2
2017-Jun-19 07:30N 48°31' W 125°16'918.5
2017-Jun-19 07:01N 48°31' W 125°02'1019.2
2017-Jun-19 06:31N 48°31' W 124°47'917.1
2017-Jun-19 06:01N 48°28' W 124°35'918.1
2017-Jun-19 05:31N 48°25' W 124°22'918.2
2017-Jun-19 05:00N 48°22' W 124°10'918.1
2017-Jun-19 04:31N 48°18' W 123°57'918.2
2017-Jun-19 04:00N 48°16' W 123°44'918.0
2017-Jun-19 03:30N 48°15' W 123°30'816.1
2017-Jun-19 03:00N 48°09' W 123°22'815.5
2017-Jun-19 02:30N 48°12' W 123°11'917.8
2017-Jun-19 02:00N 48°12' W 122°58'918.1
2017-Jun-19 01:30N 48°10' W 122°45'1018.5
2017-Jun-19 00:58N 48°01' W 122°37'918.5
2017-Jun-19 00:31N 47°55' W 122°29'1019.4
2017-Jun-19 00:01N 47°45' W 122°26'816.6
2017-Jun-18 23:31N 47°37' W 122°25'2 3.0
2017-Jun-18 23:00N 47°38' W 122°23'0 0.0
2017-Jun-18 22:30N 47°38' W 122°23'0 0.0
2017-Jun-18 22:00N 47°38' W 122°23'0 0.0
2017-Jun-18 21:30N 47°38' W 122°23'0 0.0
2017-Jun-18 21:01N 47°38' W 122°23'0 0.0
2017-Jun-18 20:29N 47°38' W 122°23'0 0.0
2017-Jun-18 19:59N 47°38' W 122°23'0 0.0
2017-Jun-18 19:29N 47°38' W 122°23'0 0.0
2017-Jun-18 18:59N 47°38' W 122°23'0 0.0
2017-Jun-18 18:28N 47°38' W 122°23'0 0.0
2017-Jun-18 17:58N 47°38' W 122°23'0 0.0
2017-Jun-18 17:30N 47°38' W 122°23'0 0.0
2017-Jun-18 17:00N 47°38' W 122°23'0 0.0
2017-Jun-18 16:30N 47°38' W 122°23'0 0.0
2017-Jun-18 16:00N 47°38' W 122°23'0 0.0
2017-Jun-18 15:30N 47°38' W 122°23'0 0.0
2017-Jun-18 14:59N 47°38' W 122°23'0 0.0
2017-Jun-18 14:00N 47°38' W 122°23'0 0.0
2017-Jun-18 13:29N 47°38' W 122°23'0 0.0
2017-Jun-18 12:59N 47°38' W 122°23'1 1.6
2017-Jun-18 12:30N 47°37' W 122°23'4 8.2
2017-Jun-18 12:00N 47°39' W 122°28'917.4
2017-Jun-18 11:30N 47°48' W 122°27'917.5
2017-Jun-18 11:00N 47°56' W 122°32'816.5
2017-Jun-18 10:30N 48°03' W 122°39'815.6
2017-Jun-18 10:00N 48°10' W 122°45'816.8
2017-Jun-18 09:30N 48°12' W 122°57'918.2
2017-Jun-18 09:00N 48°12' W 123°11'917.5
2017-Jun-18 08:30N 48°10' W 123°24'712.5
2017-Jun-18 07:59N 48°15' W 123°31'816.8
2017-Jun-18 07:31N 48°22' W 123°25'3 6.2
2017-Jun-18 07:00N 48°25' W 123°24'0 0.0
2017-Jun-18 06:30N 48°25' W 123°24'0 0.0
2017-Jun-18 05:56N 48°25' W 123°24'0 0.0
2017-Jun-18 05:29N 48°25' W 123°24'0 0.0
2017-Jun-18 04:59N 48°25' W 123°24'0 0.0
2017-Jun-18 04:29N 48°25' W 123°24'0 0.0
2017-Jun-18 03:52N 48°25' W 123°24'0 0.0
2017-Jun-18 03:28N 48°25' W 123°24'0 0.0
2017-Jun-18 02:58N 48°25' W 123°24'0 0.0
2017-Jun-18 02:28N 48°25' W 123°24'0 0.0
2017-Jun-18 01:55N 48°25' W 123°24'0 0.2
2017-Jun-18 01:30N 48°25' W 123°24'1 2.4
2017-Jun-18 01:00N 48°24' W 123°24'3 6.5
2017-Jun-18 00:30N 48°21' W 123°24'5 9.5
2017-Jun-18 00:00N 48°16' W 123°26'611.7
2017-Jun-17 23:30N 48°13' W 123°34'612.8
2017-Jun-17 23:00N 48°13' W 123°43'612.9
2017-Jun-17 22:30N 48°13' W 123°53'712.8
2017-Jun-17 22:00N 48°16' W 124°02'713.3
2017-Jun-17 21:30N 48°18' W 124°11'713.4
2017-Jun-17 21:00N 48°21' W 124°20'714.5
2017-Jun-17 20:30N 48°24' W 124°30'815.2
2017-Jun-17 20:00N 48°28' W 124°40'815.2
2017-Jun-17 19:30N 48°29' W 124°52'713.0
2017-Jun-17 19:00N 48°29' W 125°01'815.7
2017-Jun-17 18:30N 48°30' W 125°13'816.5
2017-Jun-17 18:00N 48°34' W 125°24'816.3
2017-Jun-17 17:30N 48°38' W 125°34'918.9
2017-Jun-17 17:00N 48°43' W 125°47'918.6
2017-Jun-17 16:31N 48°47' W 125°59'918.8
2017-Jun-17 16:00N 48°51' W 126°12'1019.2
2017-Jun-17 15:31N 48°57' W 126°24'1019.5
2017-Jun-17 15:00N 49°03' W 126°36'  
2017-Jun-14 07:00N 55°24' W 134°12'44410.2 120 / 151012.910.8 9.6 3.111.0
2017-Jun-12 11:37N 49°22' W 127°13'219.0
2017-Jun-12 11:29N 49°20' W 127°10'919.3
2017-Jun-12 11:00N 49°14' W 126°60'1019.2
2017-Jun-12 10:30N 49°08' W 126°49'1019.5
2017-Jun-12 10:00N 49°02' W 126°35'1019.8
2017-Jun-12 09:30N 48°57' W 126°23'1020.2
2017-Jun-12 09:00N 48°52' W 126°10'1020.5
2017-Jun-12 08:30N 48°47' W 125°56'1020.8
2017-Jun-12 08:00N 48°42' W 125°43'1020.5
2017-Jun-12 07:30N 48°36' W 125°30'918.8
2017-Jun-12 07:00N 48°31' W 125°17'1020.4
2017-Jun-12 06:30N 48°31' W 125°02'1121.9
2017-Jun-12 06:00N 48°31' W 124°46'1122.0
2017-Jun-12 05:30N 48°27' W 124°30'1121.7
2017-Jun-12 05:00N 48°23' W 124°15'1020.9
2017-Jun-12 04:30N 48°19' W 124°01'1121.3
2017-Jun-12 03:59N 48°17' W 123°44'919.2
2017-Jun-12 03:30N 48°15' W 123°31'714.5
2017-Jun-12 03:00N 48°11' W 123°22'612.2
2017-Jun-12 02:30N 48°11' W 123°13'918.3
2017-Jun-12 02:01N 48°12' W 122°59'1019.4
2017-Jun-12 01:30N 48°10' W 122°45'1017.7
2017-Jun-12 00:57N 48°02' W 122°38'716.9
2017-Jun-12 00:31N 47°56' W 122°30'1019.5
2017-Jun-12 00:01N 47°47' W 122°26'917.9
2017-Jun-11 23:31N 47°38' W 122°26'2 4.2
2017-Jun-11 23:00N 47°38' W 122°23'0 0.0
2017-Jun-11 22:30N 47°38' W 122°23'0 0.0
2017-Jun-11 22:00N 47°38' W 122°23'0 0.0
2017-Jun-11 21:30N 47°38' W 122°23'0 0.0
2017-Jun-11 21:01N 47°38' W 122°23'0 0.0
2017-Jun-11 20:30N 47°38' W 122°23'0 0.0
2017-Jun-11 20:00N 47°38' W 122°23'0 0.0
2017-Jun-11 19:29N 47°38' W 122°23'0 0.0
2017-Jun-11 18:59N 47°38' W 122°23'0 0.0
2017-Jun-11 18:29N 47°38' W 122°23'0 0.0
2017-Jun-11 17:58N 47°38' W 122°23'0 0.0
2017-Jun-11 17:29N 47°38' W 122°23'0 0.0
2017-Jun-11 16:59N 47°38' W 122°23'0 0.0
2017-Jun-11 16:28N 47°38' W 122°23'0 0.0
2017-Jun-11 16:00N 47°38' W 122°23'0 0.0
2017-Jun-11 15:30N 47°38' W 122°23'0 0.0
2017-Jun-11 15:00N 47°38' W 122°23'0 0.0
2017-Jun-11 14:30N 47°38' W 122°23'0 0.0
2017-Jun-11 13:29N 47°38' W 122°23'0 0.0
2017-Jun-11 13:00N 47°38' W 122°23'1 1.8
2017-Jun-11 12:30N 47°37' W 122°24'611.2
2017-Jun-11 12:00N 47°42' W 122°28'1020.5
2017-Jun-11 11:30N 47°52' W 122°29'1020.3
2017-Jun-11 11:00N 48°00' W 122°38'1120.7
2017-Jun-11 10:30N 48°10' W 122°45'1021.3
2017-Jun-11 10:00N 48°12' W 123°01'1020.9
2017-Jun-11 09:30N 48°11' W 123°16'816.0
2017-Jun-11 09:01N 48°11' W 123°28'918.4
2017-Jun-11 08:31N 48°21' W 123°26'5 9.0
2017-Jun-11 08:01N 48°25' W 123°24'0 0.7
2017-Jun-11 07:22N 48°25' W 123°23'0 0.0
2017-Jun-11 06:58N 48°25' W 123°23'0 0.0
2017-Jun-11 06:28N 48°25' W 123°23'0 0.0
2017-Jun-11 05:58N 48°25' W 123°23'0 0.0
2017-Jun-11 05:28N 48°25' W 123°23'0 0.0
2017-Jun-11 05:00N 48°25' W 123°23'0 0.0
2017-Jun-11 04:30N 48°25' W 123°23'0 0.0
2017-Jun-11 03:33N 48°25' W 123°23'0 0.0
2017-Jun-11 03:30N 48°25' W 123°23'0 0.0
2017-Jun-11 02:56N 48°25' W 123°23'0 0.0
2017-Jun-11 02:26N 48°25' W 123°23'0 0.0
2017-Jun-11 01:53N 48°25' W 123°23'0 0.0
2017-Jun-11 01:29N 48°25' W 123°23'0 0.3
2017-Jun-11 01:00N 48°25' W 123°24'4 7.5
2017-Jun-11 00:30N 48°21' W 123°24'714.8
2017-Jun-11 00:00N 48°14' W 123°28'714.6
2017-Jun-10 23:30N 48°13' W 123°39'714.6
2017-Jun-10 23:01N 48°13' W 123°50'816.6
2017-Jun-10 22:31N 48°15' W 124°02'917.3
2017-Jun-10 22:00N 48°19' W 124°14'916.4
2017-Jun-10 21:28N 48°23' W 124°26'817.6
2017-Jun-10 21:01N 48°27' W 124°37'816.8
2017-Jun-10 20:31N 48°29' W 124°49'917.4
2017-Jun-10 20:01N 48°29' W 125°02'815.5
2017-Jun-10 19:31N 48°30' W 125°13'713.0
2017-Jun-10 19:00N 48°33' W 125°22'713.6
2017-Jun-10 18:30N 48°37' W 125°31'816.2
2017-Jun-10 18:00N 48°41' W 125°41'815.9
2017-Jun-10 17:30N 48°45' W 125°52'815.6
2017-Jun-10 17:00N 48°48' W 126°02'713.8
2017-Jun-10 16:31N 48°53' W 126°10'714.7
2017-Jun-10 16:01N 48°57' W 126°20'816.5
2017-Jun-10 15:31N 49°01' W 126°31'1019.1
2017-Jun-10 15:00N 49°06' W 126°43'1919.2
2017-Jun-10 14:01N 49°18' W 127°06'44518.5
2017-Jun-09 14:00N 55°18' W 134°12'   140 / 131010.110.8 9.5 8.5 9.0
Track history (hours):
 
Tides and Currents Weather Stations Pressure Air Temp Water Temp Dewpoint Dewpoint Depression Visibility Wind Speed Wind Dir Waves Ship Positions

Emerald Princess

Last reported at 2017-Jun-19 12:08 UTC. Time now 2017-Jun-23 18:52 UTC.
Position N 49°18' W 127°08'.

Type: Passenger vessel. MMSI: 310531000.

Date/timePositionNaut miles runAvg speedWind from/ knotsBaromVisibWave heightAir tempDewpointWater temp
2017-Jun-19 12:08N 49°18' W 127°08'218.8
2017-Jun-19 12:00N 49°16' W 127°05'919.0
2017-Jun-19 11:31N 49°10' W 126°55'918.5
2017-Jun-19 11:00N 49°05' W 126°42'1019.1
2017-Jun-19 10:30N 49°00' W 126°30'1119.3
2017-Jun-19 09:57N 48°55' W 126°16'919.2
2017-Jun-19 09:30N 48°50' W 126°05'1019.0
2017-Jun-19 09:00N 48°45' W 125°53'919.0
2017-Jun-19 08:31N 48°40' W 125°40'1019.3
2017-Jun-19 08:00N 48°35' W 125°28'918.2
2017-Jun-19 07:30N 48°31' W 125°16'918.5
2017-Jun-19 07:01N 48°31' W 125°02'1019.2
2017-Jun-19 06:31N 48°31' W 124°47'917.1
2017-Jun-19 06:01N 48°28' W 124°35'918.1
2017-Jun-19 05:31N 48°25' W 124°22'918.2
2017-Jun-19 05:00N 48°22' W 124°10'918.1
2017-Jun-19 04:31N 48°18' W 123°57'918.2
2017-Jun-19 04:00N 48°16' W 123°44'918.0
2017-Jun-19 03:30N 48°15' W 123°30'816.1
2017-Jun-19 03:00N 48°09' W 123°22'815.5
2017-Jun-19 02:30N 48°12' W 123°11'917.8
2017-Jun-19 02:00N 48°12' W 122°58'918.1
2017-Jun-19 01:30N 48°10' W 122°45'1018.5
2017-Jun-19 00:58N 48°01' W 122°37'918.5
2017-Jun-19 00:31N 47°55' W 122°29'1019.4
2017-Jun-19 00:01N 47°45' W 122°26'816.6
2017-Jun-18 23:31N 47°37' W 122°25'2 3.0
2017-Jun-18 23:00N 47°38' W 122°23'0 0.0
2017-Jun-18 22:30N 47°38' W 122°23'0 0.0
2017-Jun-18 22:00N 47°38' W 122°23'0 0.0
2017-Jun-18 21:30N 47°38' W 122°23'0 0.0
2017-Jun-18 21:01N 47°38' W 122°23'0 0.0
2017-Jun-18 20:29N 47°38' W 122°23'0 0.0
2017-Jun-18 19:59N 47°38' W 122°23'0 0.0
2017-Jun-18 19:29N 47°38' W 122°23'0 0.0
2017-Jun-18 18:59N 47°38' W 122°23'0 0.0
2017-Jun-18 18:28N 47°38' W 122°23'0 0.0
2017-Jun-18 17:58N 47°38' W 122°23'0 0.0
2017-Jun-18 17:30N 47°38' W 122°23'0 0.0
2017-Jun-18 17:00N 47°38' W 122°23'0 0.0
2017-Jun-18 16:30N 47°38' W 122°23'0 0.0
2017-Jun-18 16:00N 47°38' W 122°23'0 0.0
2017-Jun-18 15:30N 47°38' W 122°23'0 0.0
2017-Jun-18 14:59N 47°38' W 122°23'0 0.0
2017-Jun-18 14:00N 47°38' W 122°23'0 0.0
2017-Jun-18 13:29N 47°38' W 122°23'0 0.0
2017-Jun-18 12:59N 47°38' W 122°23'1 1.6
2017-Jun-18 12:30N 47°37' W 122°23'4 8.2
2017-Jun-18 12:00N 47°39' W 122°28'917.4
2017-Jun-18 11:30N 47°48' W 122°27'917.5
2017-Jun-18 11:00N 47°56' W 122°32'816.5
2017-Jun-18 10:30N 48°03' W 122°39'815.6
2017-Jun-18 10:00N 48°10' W 122°45'816.8
2017-Jun-18 09:30N 48°12' W 122°57'918.2
2017-Jun-18 09:00N 48°12' W 123°11'917.5
2017-Jun-18 08:30N 48°10' W 123°24'712.5
2017-Jun-18 07:59N 48°15' W 123°31'816.8
2017-Jun-18 07:31N 48°22' W 123°25'3 6.2
2017-Jun-18 07:00N 48°25' W 123°24'0 0.0
2017-Jun-18 06:30N 48°25' W 123°24'0 0.0
2017-Jun-18 05:56N 48°25' W 123°24'0 0.0
2017-Jun-18 05:29N 48°25' W 123°24'0 0.0
2017-Jun-18 04:59N 48°25' W 123°24'0 0.0
2017-Jun-18 04:29N 48°25' W 123°24'0 0.0
2017-Jun-18 03:52N 48°25' W 123°24'0 0.0
2017-Jun-18 03:28N 48°25' W 123°24'0 0.0
2017-Jun-18 02:58N 48°25' W 123°24'0 0.0
2017-Jun-18 02:28N 48°25' W 123°24'0 0.0
2017-Jun-18 01:55N 48°25' W 123°24'0 0.2
2017-Jun-18 01:30N 48°25' W 123°24'1 2.4
2017-Jun-18 01:00N 48°24' W 123°24'3 6.5
2017-Jun-18 00:30N 48°21' W 123°24'5 9.5
2017-Jun-18 00:00N 48°16' W 123°26'611.7
2017-Jun-17 23:30N 48°13' W 123°34'612.8
2017-Jun-17 23:00N 48°13' W 123°43'612.9
2017-Jun-17 22:30N 48°13' W 123°53'712.8
2017-Jun-17 22:00N 48°16' W 124°02'713.3
2017-Jun-17 21:30N 48°18' W 124°11'713.4
2017-Jun-17 21:00N 48°21' W 124°20'714.5
2017-Jun-17 20:30N 48°24' W 124°30'815.2
2017-Jun-17 20:00N 48°28' W 124°40'815.2
2017-Jun-17 19:30N 48°29' W 124°52'713.0
2017-Jun-17 19:00N 48°29' W 125°01'815.7
2017-Jun-17 18:30N 48°30' W 125°13'816.5
2017-Jun-17 18:00N 48°34' W 125°24'816.3
2017-Jun-17 17:30N 48°38' W 125°34'918.9
2017-Jun-17 17:00N 48°43' W 125°47'918.6
2017-Jun-17 16:31N 48°47' W 125°59'918.8
2017-Jun-17 16:00N 48°51' W 126°12'1019.2
2017-Jun-17 15:31N 48°57' W 126°24'1019.5
2017-Jun-17 15:00N 49°03' W 126°36'  
2017-Jun-14 07:00N 55°24' W 134°12'44410.2 120 / 151012.910.8 9.6 3.111.0
2017-Jun-12 11:37N 49°22' W 127°13'219.0
2017-Jun-12 11:29N 49°20' W 127°10'919.3
2017-Jun-12 11:00N 49°14' W 126°60'1019.2
2017-Jun-12 10:30N 49°08' W 126°49'1019.5
2017-Jun-12 10:00N 49°02' W 126°35'1019.8
2017-Jun-12 09:30N 48°57' W 126°23'1020.2
2017-Jun-12 09:00N 48°52' W 126°10'1020.5
2017-Jun-12 08:30N 48°47' W 125°56'1020.8
2017-Jun-12 08:00N 48°42' W 125°43'1020.5
2017-Jun-12 07:30N 48°36' W 125°30'918.8
2017-Jun-12 07:00N 48°31' W 125°17'1020.4
2017-Jun-12 06:30N 48°31' W 125°02'1121.9
2017-Jun-12 06:00N 48°31' W 124°46'1122.0
2017-Jun-12 05:30N 48°27' W 124°30'1121.7
2017-Jun-12 05:00N 48°23' W 124°15'1020.9
2017-Jun-12 04:30N 48°19' W 124°01'1121.3
2017-Jun-12 03:59N 48°17' W 123°44'919.2
2017-Jun-12 03:30N 48°15' W 123°31'714.5
2017-Jun-12 03:00N 48°11' W 123°22'612.2
2017-Jun-12 02:30N 48°11' W 123°13'918.3
2017-Jun-12 02:01N 48°12' W 122°59'1019.4
2017-Jun-12 01:30N 48°10' W 122°45'1017.7
2017-Jun-12 00:57N 48°02' W 122°38'716.9
2017-Jun-12 00:31N 47°56' W 122°30'1019.5
2017-Jun-12 00:01N 47°47' W 122°26'917.9
2017-Jun-11 23:31N 47°38' W 122°26'2 4.2
2017-Jun-11 23:00N 47°38' W 122°23'0 0.0
2017-Jun-11 22:30N 47°38' W 122°23'0 0.0
2017-Jun-11 22:00N 47°38' W 122°23'0 0.0
2017-Jun-11 21:30N 47°38' W 122°23'0 0.0
2017-Jun-11 21:01N 47°38' W 122°23'0 0.0
2017-Jun-11 20:30N 47°38' W 122°23'0 0.0
2017-Jun-11 20:00N 47°38' W 122°23'0 0.0
2017-Jun-11 19:29N 47°38' W 122°23'0 0.0
2017-Jun-11 18:59N 47°38' W 122°23'0 0.0
2017-Jun-11 18:29N 47°38' W 122°23'0 0.0
2017-Jun-11 17:58N 47°38' W 122°23'0 0.0
2017-Jun-11 17:29N 47°38' W 122°23'0 0.0
2017-Jun-11 16:59N 47°38' W 122°23'0 0.0
2017-Jun-11 16:28N 47°38' W 122°23'0 0.0
2017-Jun-11 16:00N 47°38' W 122°23'0 0.0
2017-Jun-11 15:30N 47°38' W 122°23'0 0.0
2017-Jun-11 15:00N 47°38' W 122°23'0 0.0
2017-Jun-11 14:30N 47°38' W 122°23'0 0.0
2017-Jun-11 13:29N 47°38' W 122°23'0 0.0
2017-Jun-11 13:00N 47°38' W 122°23'1 1.8
2017-Jun-11 12:30N 47°37' W 122°24'611.2
2017-Jun-11 12:00N 47°42' W 122°28'1020.5
2017-Jun-11 11:30N 47°52' W 122°29'1020.3
2017-Jun-11 11:00N 48°00' W 122°38'1120.7
2017-Jun-11 10:30N 48°10' W 122°45'1021.3
2017-Jun-11 10:00N 48°12' W 123°01'1020.9
2017-Jun-11 09:30N 48°11' W 123°16'816.0
2017-Jun-11 09:01N 48°11' W 123°28'918.4
2017-Jun-11 08:31N 48°21' W 123°26'5 9.0
2017-Jun-11 08:01N 48°25' W 123°24'0 0.7
2017-Jun-11 07:22N 48°25' W 123°23'0 0.0
2017-Jun-11 06:58N 48°25' W 123°23'0 0.0
2017-Jun-11 06:28N 48°25' W 123°23'0 0.0
2017-Jun-11 05:58N 48°25' W 123°23'0 0.0
2017-Jun-11 05:28N 48°25' W 123°23'0 0.0
2017-Jun-11 05:00N 48°25' W 123°23'0 0.0
2017-Jun-11 04:30N 48°25' W 123°23'0 0.0
2017-Jun-11 03:33N 48°25' W 123°23'0 0.0
2017-Jun-11 03:30N 48°25' W 123°23'0 0.0
2017-Jun-11 02:56N 48°25' W 123°23'0 0.0
2017-Jun-11 02:26N 48°25' W 123°23'0 0.0
2017-Jun-11 01:53N 48°25' W 123°23'0 0.0
2017-Jun-11 01:29N 48°25' W 123°23'0 0.3
2017-Jun-11 01:00N 48°25' W 123°24'4 7.5
2017-Jun-11 00:30N 48°21' W 123°24'714.8
2017-Jun-11 00:00N 48°14' W 123°28'714.6
2017-Jun-10 23:30N 48°13' W 123°39'714.6
2017-Jun-10 23:01N 48°13' W 123°50'816.6
2017-Jun-10 22:31N 48°15' W 124°02'917.3
2017-Jun-10 22:00N 48°19' W 124°14'916.4
2017-Jun-10 21:28N 48°23' W 124°26'817.6
2017-Jun-10 21:01N 48°27' W 124°37'816.8
2017-Jun-10 20:31N 48°29' W 124°49'917.4
2017-Jun-10 20:01N 48°29' W 125°02'815.5
2017-Jun-10 19:31N 48°30' W 125°13'713.0
2017-Jun-10 19:00N 48°33' W 125°22'713.6
2017-Jun-10 18:30N 48°37' W 125°31'816.2
2017-Jun-10 18:00N 48°41' W 125°41'815.9
2017-Jun-10 17:30N 48°45' W 125°52'815.6
2017-Jun-10 17:00N 48°48' W 126°02'713.8
2017-Jun-10 16:31N 48°53' W 126°10'714.7
2017-Jun-10 16:01N 48°57' W 126°20'816.5
2017-Jun-10 15:31N 49°01' W 126°31'1019.1
2017-Jun-10 15:00N 49°06' W 126°43'1919.2
2017-Jun-10 14:01N 49°18' W 127°06'44518.5
2017-Jun-09 14:00N 55°18' W 134°12'   140 / 131010.110.8 9.5 8.5 9.0

Dump ship's entire track history